Terminal Aerodrome Forecast
Issued by NWS

Home | Current Version | Previous Version | Text Only | Print | Product List | Glossary Off
Versions: 1 2 3 4 5 6 7 8 9 10 11 12 13

000
FTUS43 KEAX 221200 AAA
TAFSTJ
TAF AMD
KSTJ 221256Z 2213/2312 19009KT P6SM SCT250
      TEMPO 2213/2214 5SM BR
     FM221600 24012KT P6SM SCT250
     FM230100 03010KT P6SM VCTS BKN050CB
     FM230500 03005KT P6SM BKN050=

USA.gov is the U.S. government's official web portal to all federal, state and local government web resources and services.